simon Lamba 35x0:30/r BikeErg
7,932
Meters
17:30.0
Time
2:12.3
Pace
231
Calories
| Rest Distance | 63 |
|---|---|
| Rest Time | |
| Overall Distance | 7,995 |
| Overall Time | 17:30.0 |
| Average Watts | 151 |
|---|---|
| Calories Per Hour | 792 |
| RPM | 53 |
| Revolution Count | 942 |
| Power/kg | 1.51 |
| Drag Factor | 198 |
May 06, 2025 06:58:00
Workout
BikeErg
Workout Type
Interval:Time
Verified
No
Entered
ErgData iOS
Intervals
| Time | Meters | Pace | Watts | Cal/Hr | RPM | |
|---|---|---|---|---|---|---|
| 17:30.0 | 7,932 | 2:12.3 | 151 | 792 | 53 | |
| 0:30.0 | 200 | 2:30.0 | 104 | 600 | 48 | |
| 0:30.0 | 253 | 1:58.5 | 210 | 960 | 60 | |
| 0:30.0 | 212 | 2:21.5 | 124 | 720 | 50 | |
| 0:30.0 | 253 | 1:58.5 | 210 | 960 | 60 | |
| 0:30.0 | 206 | 2:25.6 | 113 | 600 | 48 | |
| 0:30.0 | 253 | 1:58.5 | 210 | 960 | 60 | |
| 0:30.0 | 208 | 2:24.2 | 117 | 600 | 48 | |
| 0:30.0 | 254 | 1:58.1 | 212 | 960 | 60 | |
| 0:30.0 | 202 | 2:28.5 | 107 | 600 | 48 | |
| 0:30.0 | 254 | 1:58.1 | 212 | 960 | 60 | |
| 0:30.0 | 200 | 2:30.0 | 104 | 600 | 46 | |
| 0:30.0 | 260 | 1:55.3 | 228 | 1080 | 60 | |
| 0:30.0 | 202 | 2:28.5 | 107 | 600 | 48 | |
| 0:30.0 | 260 | 1:55.3 | 228 | 1080 | 60 | |
| 0:30.0 | 202 | 2:28.5 | 107 | 600 | 48 | |
| 0:30.0 | 260 | 1:55.3 | 228 | 1080 | 62 | |
| 0:30.0 | 190 | 2:37.8 | 89 | 600 | 44 | |
| 0:30.0 | 261 | 1:54.9 | 230 | 1080 | 62 | |
| 0:30.0 | 201 | 2:29.2 | 105 | 600 | 46 | |
| 0:30.0 | 261 | 1:54.9 | 230 | 1080 | 62 | |
| 0:30.0 | 197 | 2:32.2 | 99 | 600 | 46 | |
| 0:30.0 | 270 | 1:51.1 | 255 | 1080 | 64 | |
| 0:30.0 | 203 | 2:27.7 | 108 | 600 | 48 | |
| 0:30.0 | 201 | 2:29.2 | 105 | 600 | 48 | |
| 0:30.0 | 270 | 1:51.1 | 255 | 1080 | 64 | |
| 0:30.0 | 204 | 2:27.0 | 110 | 600 | 48 | |
| 0:30.0 | 205 | 2:26.3 | 112 | 600 | 48 | |
| 0:30.0 | 271 | 1:50.7 | 258 | 1080 | 64 | |
| 0:30.0 | 203 | 2:27.7 | 108 | 600 | 48 | |
| 0:30.0 | 165 | 3:01.8 | 58 | 480 | 38 | |
| 0:30.0 | 271 | 1:50.7 | 258 | 1080 | 64 | |
| 0:30.0 | 213 | 2:20.8 | 125 | 720 | 50 | |
| 0:30.0 | 206 | 2:25.6 | 113 | 600 | 48 | |
| 0:30.0 | 270 | 1:51.1 | 255 | 1080 | 64 | |
| 0:30.0 | 206 | 2:25.6 | 113 | 600 | 48 | |
| r63 |
Click on an interval to see the workout graph.
Click and drag on the graph to zoom in on a section.
Workout Graph
Loading data.